EPSY

Szczytno-Szymany International Airport

Poland
METAR EPSY 171130Z VRB02KT 5000 BR OVC019 M02/M03 Q1021 R01/790392
Observed Flight Rules
Dec-17 @ 11:30 UTC (37 minutes ago) Marginal Visual Flight Rules
Wind Visibility Clouds Conditions
Variable at 2 knots 5,005 meters
  • Overcast at 1,900' AGL
  • Mist
Temperatures Readings
Current -2°C / 28°F
Dewpoint -3°C / 27°F
Humidity 93%
Altimeter 30.15" Hg
Pressure 1021 hPa
Elevation 141
METAR EPSY 171130Z VRB02KT 5000 BR OVC019 M02/M03 Q1021 R01/790392
Observed Flight Rules
Dec-17 @ 11:30 UTC
(37 minutes ago)
MVFR
Wind Visibility
Variable at 2 knots 5,005 meters
Clouds
  • Overcast at 1,900' AGL
Conditions
  • Mist
Temperature Dewpoint
-2°C / 28°F -3°C / 27°F
Humidity Altimeter Pressure
93% 30.15" Hg 1021 hPa